Time;durP1;ratioP1;P1;durP2;ratioP2;P2;SDS_P1;SDS_P2;PMS_P1;PMS_P2;Temp;Humidity;BMP_temperature;BMP_pressure;BME280_temperature;BME280_humidity;BME280_pressure;Samples;Min_cycle;Max_cycle;Signal;HPM_P1;HPM_P2
2021/06/19 00:00:22;;;;;;;;;;;;;;;19.53;100.00;99970.59;5116208;28;19992;-74
2021/06/19 00:02:48;;;;;;;;;;;;;;;19.41;100.00;99972.13;5098464;28;19920;-74
2021/06/19 00:05:14;;;;;;;;;;;;;;;19.31;100.00;99977.75;5116867;28;19933;-73
2021/06/19 00:07:39;;;;;;;;;;;;;;;19.19;100.00;99981.91;5117357;28;19911;-74
2021/06/19 00:10:05;;;;;;;;;;;;;;;19.14;100.00;99973.69;5116161;28;20413;-75
2021/06/19 00:12:30;;;;;;;;;;;;;;;19.04;100.00;99976.66;5116777;28;19912;-73
2021/06/19 00:14:56;;;;;;;;;;;;;;;18.92;100.00;99967.50;5117086;28;19969;-74
2021/06/19 00:17:21;;;;;;;;;;;;;;;18.77;100.00;99970.22;5116623;28;19923;-73
2021/06/19 00:19:46;;;;;;;;;;;;;;;18.73;100.00;99966.25;5116863;28;19911;-74
2021/06/19 00:22:12;;;;;;;;;;;;;;;18.88;100.00;99962.56;5115911;28;19916;-74
2021/06/19 00:24:38;;;;;;;;;;;;;;;18.79;100.00;99968.19;5115832;28;19911;-74
2021/06/19 00:27:04;;;;;;;;;;;;;;;18.81;100.00;99971.47;5115818;28;19920;-73
2021/06/19 00:29:33;;;;;;;;;;;;;;;18.77;100.00;99975.53;5097397;28;20305;-74
2021/06/19 00:31:58;;;;;;;;;;;;;;;18.90;100.00;99965.06;5116387;28;19983;-74
2021/06/19 00:34:24;;;;;;;;;;;;;;;18.82;100.00;99959.84;5115739;28;20378;-74
2021/06/19 00:36:49;;;;;;;;;;;;;;;18.80;100.00;99961.88;5115674;28;19912;-74
2021/06/19 00:39:14;;;;;;;;;;;;;;;18.85;100.00;99962.13;5115948;28;19919;-74
2021/06/19 00:41:39;;;;;;;;;;;;;;;18.93;100.00;99967.31;5115280;28;19912;-74
2021/06/19 00:44:05;;;;;;;;;;;;;;;18.71;100.00;99966.44;5115951;28;19915;-74
2021/06/19 00:46:31;;;;;;;;;;;;;;;18.44;100.00;99962.63;5115327;28;19977;-74
2021/06/19 00:48:56;;;;;;;;;;;;;;;18.31;100.00;99967.75;5116090;28;19911;-74
2021/06/19 00:51:21;;;;;;;;;;;;;;;18.26;100.00;99964.78;5115649;28;19911;-73
2021/06/19 00:53:47;;;;;;;;;;;;;;;18.24;100.00;99977.44;5115325;28;20014;-73
2021/06/19 00:56:12;;;;;;;;;;;;;;;18.32;100.00;99974.69;5115936;28;20001;-74
2021/06/19 00:58:38;;;;;;;;;;;;;;;18.51;100.00;99971.47;5115328;28;20340;-74
2021/06/19 01:01:03;;;;;;;;;;;;;;;18.60;100.00;99964.25;5115564;28;20378;-73
2021/06/19 01:03:29;;;;;;;;;;;;;;;18.64;100.00;99961.03;5115905;28;19918;-73
2021/06/19 01:05:54;;;;;;;;;;;;;;;18.64;100.00;99963.69;5097516;28;19959;-73
2021/06/19 01:08:19;;;;;;;;;;;;;;;18.78;100.00;99963.88;5115783;28;20389;-73
2021/06/19 01:10:45;;;;;;;;;;;;;;;18.74;100.00;99966.09;5115570;28;19911;-73
2021/06/19 01:13:10;;;;;;;;;;;;;;;18.75;100.00;99967.72;5115536;28;19918;-73
2021/06/19 01:15:35;;;;;;;;;;;;;;;18.76;100.00;99968.53;5115278;28;19969;-73
2021/06/19 01:18:01;;;;;;;;;;;;;;;18.72;100.00;99970.75;5115595;28;19916;-73
2021/06/19 01:20:26;;;;;;;;;;;;;;;18.40;100.00;99974.59;5115640;28;19916;-73
2021/06/19 01:22:53;;;;;;;;;;;;;;;18.34;100.00;99973.50;5115574;28;20432;-73
2021/06/19 01:25:20;;;;;;;;;;;;;;;18.30;100.00;99980.19;5115407;28;19911;-73
2021/06/19 01:27:48;;;;;;;;;;;;;;;18.34;100.00;99970.84;5115445;28;19919;-73
2021/06/19 01:30:14;;;;;;;;;;;;;;;18.42;100.00;99977.88;5114965;28;19968;-73
2021/06/19 01:32:39;;;;;;;;;;;;;;;18.50;100.00;99969.03;5097056;28;19911;-73
2021/06/19 01:35:06;;;;;;;;;;;;;;;18.56;100.00;99966.47;5096598;28;19922;-73
2021/06/19 01:37:31;;;;;;;;;;;;;;;18.60;100.00;99965.06;5114974;28;19923;-73
2021/06/19 01:40:08;;;;;;;;;;;;;;;18.64;100.00;99963.69;5115110;28;19911;-73
2021/06/19 01:42:34;;;;;;;;;;;;;;;18.64;100.00;99958.38;5114732;28;19946;-73
2021/06/19 01:44:59;;;;;;;;;;;;;;;18.55;100.00;99959.47;5114877;28;19919;-73
2021/06/19 01:47:27;;;;;;;;;;;;;;;18.56;100.00;99957.66;5114888;28;19923;-73
2021/06/19 01:49:52;;;;;;;;;;;;;;;18.55;100.00;99958.66;5114772;28;19912;-73
2021/06/19 01:52:18;;;;;;;;;;;;;;;18.57;100.00;99960.13;5114786;28;19919;-73
2021/06/19 01:54:43;;;;;;;;;;;;;;;18.61;100.00;99963.25;5114700;28;19911;-73
2021/06/19 01:57:09;;;;;;;;;;;;;;;18.63;100.00;99963.88;5113682;28;19916;-73
2021/06/19 01:59:34;;;;;;;;;;;;;;;18.50;100.00;99963.72;5114743;28;19919;-73
2021/06/19 02:02:00;;;;;;;;;;;;;;;18.56;100.00;99970.91;5114787;28;19911;-73
2021/06/19 02:04:26;;;;;;;;;;;;;;;18.59;100.00;99963.41;5114604;28;19919;-73
2021/06/19 02:06:51;;;;;;;;;;;;;;;18.52;100.00;99956.38;5114602;28;20379;-73
2021/06/19 02:09:17;;;;;;;;;;;;;;;18.10;100.00;99956.03;5114469;28;19912;-73
2021/06/19 02:11:42;;;;;;;;;;;;;;;17.91;100.00;99960.00;5114382;28;20359;-73
2021/06/19 02:14:08;;;;;;;;;;;;;;;18.11;100.00;99957.66;5114754;28;19947;-73
2021/06/19 02:16:33;;;;;;;;;;;;;;;18.17;100.00;99948.97;5114474;28;20351;-73
2021/06/19 02:18:58;;;;;;;;;;;;;;;18.21;100.00;99959.22;5096062;28;19916;-73
2021/06/19 02:21:24;;;;;;;;;;;;;;;18.22;100.00;99953.72;5114313;28;19912;-73
2021/06/19 02:23:49;;;;;;;;;;;;;;;18.26;100.00;99956.84;5114136;28;19911;-73
2021/06/19 02:26:14;;;;;;;;;;;;;;;18.31;100.00;99949.16;5114387;28;20007;-72
2021/06/19 02:28:40;;;;;;;;;;;;;;;18.07;100.00;99959.03;5114531;28;20010;-72
2021/06/19 02:31:05;;;;;;;;;;;;;;;17.99;100.00;99952.97;5095943;28;20370;-73
2021/06/19 02:33:31;;;;;;;;;;;;;;;18.08;100.00;99960.69;5114264;28;20026;-72
2021/06/19 02:35:57;;;;;;;;;;;;;;;17.77;100.00;99952.06;5114123;28;19983;-72
2021/06/19 02:38:22;;;;;;;;;;;;;;;17.68;100.00;99959.19;5113846;28;20398;-72
2021/06/19 02:40:49;;;;;;;;;;;;;;;17.59;100.00;99960.31;5114111;28;20336;-72
2021/06/19 02:43:14;;;;;;;;;;;;;;;17.48;100.00;99961.53;5113867;28;19915;-72
2021/06/19 02:45:40;;;;;;;;;;;;;;;17.30;100.00;99942.47;5113901;28;19911;-72
2021/06/19 02:48:05;;;;;;;;;;;;;;;17.26;100.00;99951.78;5113896;28;19911;-72
2021/06/19 02:50:32;;;;;;;;;;;;;;;17.20;100.00;99946.16;5113770;28;20322;-72
2021/06/19 02:52:59;;;;;;;;;;;;;;;17.20;100.00;99948.81;5113746;28;19911;-72
2021/06/19 02:55:26;;;;;;;;;;;;;;;17.16;100.00;99944.88;5095121;28;19915;-72
2021/06/19 02:57:51;;;;;;;;;;;;;;;17.07;100.00;99945.94;5113716;28;19916;-72
2021/06/19 03:00:17;;;;;;;;;;;;;;;17.06;100.00;99946.94;5113617;28;19918;-72
2021/06/19 03:02:43;;;;;;;;;;;;;;;17.09;100.00;99941.28;5113541;28;20008;-72
2021/06/19 03:05:10;;;;;;;;;;;;;;;17.04;100.00;99938.34;5113684;28;19911;-72
2021/06/19 03:07:35;;;;;;;;;;;;;;;17.14;100.00;99946.06;5112836;28;20390;-72
2021/06/19 03:10:01;;;;;;;;;;;;;;;17.28;100.00;99947.09;5113378;28;20011;-72
2021/06/19 03:12:27;;;;;;;;;;;;;;;17.38;100.00;99947.69;5113560;28;19955;-72
2021/06/19 03:14:53;;;;;;;;;;;;;;;17.48;100.00;99948.28;5095134;28;19912;-72
2021/06/19 03:17:18;;;;;;;;;;;;;;;17.48;100.00;99948.28;5113292;28;19960;-72
2021/06/19 03:19:43;;;;;;;;;;;;;;;17.38;100.00;99937.09;5113416;28;19912;-72
2021/06/19 03:22:09;;;;;;;;;;;;;;;17.30;100.00;99943.28;5113313;28;19912;-72
2021/06/19 03:24:40;;;;;;;;;;;;;;;17.29;100.00;99936.34;5113058;28;19912;-72
2021/06/19 03:27:08;;;;;;;;;;;;;;;17.23;100.00;99937.88;5113398;28;20340;-72
2021/06/19 03:29:33;;;;;;;;;;;;;;;17.31;100.00;99933.50;5094921;28;19919;-72
2021/06/19 03:31:58;;;;;;;;;;;;;;;17.47;100.00;99936.03;5113102;28;20419;-72
2021/06/19 03:34:24;;;;;;;;;;;;;;;17.41;100.00;99939.41;5112683;28;19915;-72
2021/06/19 03:36:49;;;;;;;;;;;;;;;17.30;100.00;99926.59;5112845;28;19912;-72
2021/06/19 03:39:15;;;;;;;;;;;;;;;17.35;100.00;99934.84;5112968;28;20527;-72
2021/06/19 03:41:42;;;;;;;;;;;;;;;17.29;100.00;99935.53;5095248;28;19916;-72
2021/06/19 03:44:08;;;;;;;;;;;;;;;17.28;100.00;99941.81;5113401;28;19922;-72
2021/06/19 03:46:33;;;;;;;;;;;;;;;17.36;100.00;99934.63;5112959;28;19912;-72
2021/06/19 03:48:59;;;;;;;;;;;;;;;17.45;100.00;99938.88;5094792;28;19922;-72
2021/06/19 03:51:24;;;;;;;;;;;;;;;17.42;100.00;99946.38;5094613;28;20363;-72
2021/06/19 03:53:49;;;;;;;;;;;;;;;17.41;100.00;99947.34;5112798;28;19954;-73
2021/06/19 03:56:15;;;;;;;;;;;;;;;17.50;100.00;99940.97;5113069;28;19912;-72
2021/06/19 03:58:40;;;;;;;;;;;;;;;17.65;100.00;99941.00;5112987;28;19911;-72
2021/06/19 04:01:05;;;;;;;;;;;;;;;17.75;100.00;99936.31;5113108;28;19959;-73
2021/06/19 04:03:30;;;;;;;;;;;;;;;17.81;100.00;99934.78;5112838;28;19916;-72
2021/06/19 04:05:56;;;;;;;;;;;;;;;17.86;100.00;99929.78;5112642;28;19960;-72
2021/06/19 04:08:21;;;;;;;;;;;;;;;18.00;100.00;99930.78;5112798;28;19935;-73
2021/06/19 04:10:46;;;;;;;;;;;;;;;18.08;100.00;99928.03;5113215;28;19912;-73
2021/06/19 04:13:12;;;;;;;;;;;;;;;18.10;100.00;99918.91;5112999;28;20305;-72
2021/06/19 04:15:37;;;;;;;;;;;;;;;18.24;100.00;99919.09;5112732;28;19918;-72
2021/06/19 04:18:02;;;;;;;;;;;;;;;18.21;100.00;99924.75;5112948;28;19988;-72
2021/06/19 04:20:28;;;;;;;;;;;;;;;18.29;100.00;99922.84;5114135;28;20354;-72
2021/06/19 04:22:53;;;;;;;;;;;;;;;18.29;100.00;99917.53;5116319;28;19912;-72
2021/06/19 04:25:19;;;;;;;;;;;;;;;18.26;100.00;99917.91;5098824;28;19912;-72
2021/06/19 04:27:54;;;;;;;;;;;;;;;18.26;100.00;99920.56;5098097;28;19919;-72
2021/06/19 04:30:20;;;;;;;;;;;;;;;18.28;100.00;99921.19;5116505;28;19911;-72
2021/06/19 04:32:46;;;;;;;;;;;;;;;18.32;100.00;99919.78;5098206;28;19912;-72
2021/06/19 04:35:13;;;;;;;;;;;;;;;18.39;100.00;99923.38;5116363;28;20298;-72
2021/06/19 04:37:39;;;;;;;;;;;;;;;18.50;100.00;99926.56;5097778;28;19963;-72
2021/06/19 04:40:16;;;;;;;;;;;;;;;18.50;100.00;99927.38;5098049;28;20349;-73
2021/06/19 04:42:45;;;;;;;;;;;;;;;18.47;100.00;99927.75;5098119;28;19985;-72
2021/06/19 04:45:12;;;;;;;;;;;;;;;18.50;100.00;99938.00;5084868;28;19915;-72
2021/06/19 04:47:38;;;;;;;;;;;;;;;18.50;100.00;99932.69;5097976;28;19998;-73
2021/06/19 04:50:05;;;;;;;;;;;;;;;18.34;100.00;99932.88;5099146;28;19920;-73
2021/06/19 04:52:32;;;;;;;;;;;;;;;18.50;100.00;99937.19;5093084;28;19916;-73
2021/06/19 04:54:57;;;;;;;;;;;;;;;18.50;100.00;99942.50;5090479;28;21334;-73
2021/06/19 04:57:23;;;;;;;;;;;;;;;18.50;100.00;99943.31;5098661;28;19920;-73
2021/06/19 04:59:48;;;;;;;;;;;;;;;18.64;100.00;99947.75;5092219;28;20447;-72
2021/06/19 05:02:15;;;;;;;;;;;;;;;18.74;100.00;99949.34;5092564;28;19966;-72
2021/06/19 05:04:40;;;;;;;;;;;;;;;18.78;100.00;99958.56;5101032;28;19926;-73
2021/06/19 05:07:05;;;;;;;;;;;;;;;18.88;100.00;99962.56;5106782;28;20314;-72
2021/06/19 05:09:31;;;;;;;;;;;;;;;18.86;100.00;99958.44;5101498;28;19924;-72
2021/06/19 05:11:56;;;;;;;;;;;;;;;18.96;100.00;99958.97;5109771;28;19916;-73
2021/06/19 05:14:21;;;;;;;;;;;;;;;19.00;100.00;99957.63;5107264;28;19923;-73
2021/06/19 05:16:47;;;;;;;;;;;;;;;18.90;100.00;99965.06;5094220;28;19919;-72
2021/06/19 05:19:12;;;;;;;;;;;;;;;18.94;100.00;99960.19;5106673;28;19919;-73
2021/06/19 05:21:38;;;;;;;;;;;;;;;18.84;100.00;99953.34;5093211;27;19924;-73
2021/06/19 05:24:04;;;;;;;;;;;;;;;18.70;100.00;99953.34;5090300;28;19919;-73
2021/06/19 05:26:29;;;;;;;;;;;;;;;18.85;100.00;99964.78;5091946;28;19916;-72
2021/06/19 05:28:54;;;;;;;;;;;;;;;18.96;100.00;99969.59;5078826;28;19930;-73
2021/06/19 05:31:19;;;;;;;;;;;;;;;18.97;100.00;99968.59;5103789;28;20425;-72
2021/06/19 05:33:45;;;;;;;;;;;;;;;19.02;100.00;99974.16;5102603;28;19972;-74
2021/06/19 05:36:10;;;;;;;;;;;;;;;18.91;100.00;99971.19;5098584;28;19943;-72
2021/06/19 05:38:35;;;;;;;;;;;;;;;18.83;100.00;99966.78;5103806;28;20398;-73
2021/06/19 05:41:01;;;;;;;;;;;;;;;18.74;100.00;99974.06;5109257;28;19921;-72
2021/06/19 05:43:26;;;;;;;;;;;;;;;18.76;100.00;99979.97;5102763;28;19920;-73
2021/06/19 05:45:52;;;;;;;;;;;;;;;18.68;100.00;99980.06;5105765;28;20018;-72
2021/06/19 05:48:18;;;;;;;;;;;;;;;18.76;100.00;99985.28;5102667;28;19931;-72
2021/06/19 05:50:44;;;;;;;;;;;;;;;18.85;100.00;99988.69;5108481;28;19916;-72
2021/06/19 05:53:09;;;;;;;;;;;;;;;18.90;100.00;99988.97;5099488;28;19915;-71
2021/06/19 05:55:34;;;;;;;;;;;;;;;18.98;100.00;99988.00;5093425;28;19920;-73
2021/06/19 05:58:00;;;;;;;;;;;;;;;19.14;100.00;99992.28;5103946;28;19941;-72
2021/06/19 06:00:25;;;;;;;;;;;;;;;19.15;100.00;99988.59;5095405;28;19919;-73
2021/06/19 06:02:50;;;;;;;;;;;;;;;18.99;100.00;99995.78;5101883;28;20045;-72
2021/06/19 06:05:16;;;;;;;;;;;;;;;19.11;100.00;99996.13;5102088;28;19999;-72
2021/06/19 06:07:41;;;;;;;;;;;;;;;19.14;100.00;99992.28;5104855;28;19916;-72
2021/06/19 06:10:07;;;;;;;;;;;;;;;19.25;100.00;99989.94;5105416;28;19915;-73
2021/06/19 06:12:32;;;;;;;;;;;;;;;19.19;100.00;99992.53;5085562;28;20011;-73
2021/06/19 06:14:58;;;;;;;;;;;;;;;19.27;100.00;99997.72;5105007;28;20470;-73
2021/06/19 06:17:23;;;;;;;;;;;;;;;19.32;100.00;99995.31;5103425;28;20422;-72
2021/06/19 06:19:48;;;;;;;;;;;;;;;19.46;100.00;100007.72;5109564;28;19918;-72
2021/06/19 06:22:14;;;;;;;;;;;;;;;19.58;100.00;100002.75;5107066;28;19916;-73
2021/06/19 06:24:39;;;;;;;;;;;;;;;19.65;100.00;100008.16;5102790;28;20002;-71
2021/06/19 06:27:05;;;;;;;;;;;;;;;19.78;100.00;100014.41;5102004;28;19923;-72
2021/06/19 06:29:30;;;;;;;;;;;;;;;19.85;100.00;100014.47;5106545;28;19919;-72
2021/06/19 06:31:55;;;;;;;;;;;;;;;19.96;100.00;100023.75;5101395;28;19939;-72
2021/06/19 06:34:23;;;;;;;;;;;;;;;20.08;100.00;100026.69;5103962;28;19920;-73
2021/06/19 06:36:49;;;;;;;;;;;;;;;20.04;100.00;100024.41;5095600;28;19915;-71
2021/06/19 06:39:14;;;;;;;;;;;;;;;20.11;100.00;100027.13;5099529;28;19935;-72
2021/06/19 06:41:40;;;;;;;;;;;;;;;20.15;100.00;100027.56;5100964;28;19954;-72
2021/06/19 06:44:06;;;;;;;;;;;;;;;20.05;100.00;100025.25;5106302;28;20247;-72
2021/06/19 06:46:31;;;;;;;;;;;;;;;20.10;100.00;100011.38;5102470;28;20146;-72
2021/06/19 06:48:56;;;;;;;;;;;;;;;20.03;100.00;100019.28;5108359;28;20435;-72
2021/06/19 06:51:22;;;;;;;;;;;;;;;20.08;100.00;100032.00;5090213;28;19923;-72
2021/06/19 06:53:47;;;;;;;;;;;;;;;20.11;100.00;100015.66;5103809;28;19912;-72
2021/06/19 06:56:12;;;;;;;;;;;;;;;20.09;100.00;100017.72;5099527;28;19919;-71
2021/06/19 06:58:38;;;;;;;;;;;;;;;20.18;100.00;100027.16;5089867;28;20346;-72
2021/06/19 07:01:03;;;;;;;;;;;;;;;20.22;100.00;100021.28;5102169;28;19920;-72
2021/06/19 07:03:28;;;;;;;;;;;;;;;20.33;100.00;100022.56;5094995;28;19919;-73
2021/06/19 07:05:54;;;;;;;;;;;;;;;20.46;100.00;100022.66;5095768;28;19967;-72
2021/06/19 07:08:19;;;;;;;;;;;;;;;20.58;100.00;100022.13;5093334;28;19919;-72
2021/06/19 07:10:44;;;;;;;;;;;;;;;20.63;100.00;100022.38;5091495;28;19943;-72
2021/06/19 07:13:10;;;;;;;;;;;;;;;20.68;100.00;100027.91;5093614;28;20670;-72
2021/06/19 07:15:36;;;;;;;;;;;;;;;20.75;100.00;100018.97;5097069;28;19927;-71
2021/06/19 07:18:01;;;;;;;;;;;;;;;20.90;100.00;100012.66;5099180;28;19912;-71
2021/06/19 07:20:26;;;;;;;;;;;;;;;21.00;100.00;99999.78;5076601;28;19922;-72
2021/06/19 07:22:52;;;;;;;;;;;;;;;20.98;100.00;99997.31;5097712;28;19920;-72
2021/06/19 07:25:17;;;;;;;;;;;;;;;21.08;100.00;99999.59;5076482;28;19920;-72
2021/06/19 07:27:43;;;;;;;;;;;;;;;21.17;100.00;99998.41;5090707;28;20330;-71
2021/06/19 07:30:09;;;;;;;;;;;;;;;21.34;100.00;99988.22;5094054;28;19922;-72
2021/06/19 07:32:35;;;;;;;;;;;;;;;21.42;100.00;99985.34;5094633;28;19916;-71
2021/06/19 07:35:01;;;;;;;;;;;;;;;21.46;100.00;99985.78;5092790;28;19973;-71
2021/06/19 07:37:26;;;;;;;;;;;;;;;21.57;100.00;99979.03;5091246;28;19920;-71
2021/06/19 07:39:53;;;;;;;;;;;;;;;21.69;100.00;99982.72;5097222;28;20396;-72
2021/06/19 07:42:22;;;;;;;;;;;;;;;21.83;100.00;99981.69;5103027;28;19920;-72
2021/06/19 07:44:48;;;;;;;;;;;;;;;21.86;100.00;99977.78;5085308;28;19916;-72
2021/06/19 07:47:13;;;;;;;;;;;;;;;21.90;100.00;99979.84;5107886;28;19912;-72
2021/06/19 07:49:38;;;;;;;;;;;;;;;21.97;100.00;99976.34;5105498;28;19949;-72
2021/06/19 07:52:04;;;;;;;;;;;;;;;22.10;100.00;99973.66;5105967;28;20297;-73
2021/06/19 07:54:29;;;;;;;;;;;;;;;22.21;100.00;99978.41;5098652;28;20309;-72
2021/06/19 07:56:55;;;;;;;;;;;;;;;22.32;100.00;99975.09;5097098;28;20366;-72
2021/06/19 07:59:20;;;;;;;;;;;;;;;22.61;100.00;99965.75;5104281;28;19920;-73
2021/06/19 08:01:45;;;;;;;;;;;;;;;22.91;100.00;99969.72;5100850;28;19919;-72
2021/06/19 08:04:11;;;;;;;;;;;;;;;23.18;100.00;99960.53;5103827;28;19967;-74
2021/06/19 08:06:36;;;;;;;;;;;;;;;23.19;100.00;99972.91;5110183;28;20033;-73
2021/06/19 08:09:01;;;;;;;;;;;;;;;23.31;100.00;99963.13;5100870;28;19970;-73
2021/06/19 08:11:27;;;;;;;;;;;;;;;23.42;100.00;99960.78;5100860;28;19965;-73
2021/06/19 08:13:53;;;;;;;;;;;;;;;23.45;100.00;99957.69;5105417;28;19973;-73
2021/06/19 08:16:19;;;;;;;;;;;;;;;23.31;100.00;99954.28;5106457;28;20006;-72
2021/06/19 08:18:45;;;;;;;;;;;;;;;23.06;100.00;99963.09;5106457;28;20002;-73
2021/06/19 08:21:10;;;;;;;;;;;;;;;22.99;100.00;99956.97;5096615;28;19924;-73
2021/06/19 08:23:35;;;;;;;;;;;;;;;23.10;100.00;99958.13;5105323;28;19982;-74
2021/06/19 08:26:01;;;;;;;;;;;;;;;22.93;100.00;99949.00;5105749;28;19923;-74
2021/06/19 08:28:26;;;;;;;;;;;;;;;22.81;100.00;99959.50;5108558;28;19926;-74
2021/06/19 08:30:51;;;;;;;;;;;;;;;22.83;100.00;99960.91;5106257;28;19922;-74
2021/06/19 08:33:17;;;;;;;;;;;;;;;22.78;100.00;99954.56;5099874;28;19916;-73
2021/06/19 08:35:42;;;;;;;;;;;;;;;22.62;100.00;99953.22;5102481;28;19919;-76
2021/06/19 08:38:07;;;;;;;;;;;;;;;22.78;100.00;99955.41;5095010;28;20432;-74
2021/06/19 08:40:33;;;;;;;;;;;;;;;22.63;100.00;99950.31;5095209;28;19919;-76
2021/06/19 08:42:58;;;;;;;;;;;;;;;22.68;100.00;99954.19;5064031;28;19943;-73
2021/06/19 08:45:24;;;;;;;;;;;;;;;22.76;100.00;99957.47;5080081;28;20355;-76
2021/06/19 08:47:49;;;;;;;;;;;;;;;22.95;100.00;99950.44;5058322;28;19977;-73
2021/06/19 08:50:15;;;;;;;;;;;;;;;23.01;100.00;99957.56;5079835;28;19920;-73
2021/06/19 08:52:41;;;;;;;;;;;;;;;23.15;100.00;99947.59;5086858;28;19927;-75
2021/06/19 08:55:09;;;;;;;;;;;;;;;23.11;100.00;99949.06;5080403;28;20020;-73
2021/06/19 08:57:34;;;;;;;;;;;;;;;23.20;100.00;99952.31;5059007;28;19995;-73
2021/06/19 09:00:00;;;;;;;;;;;;;;;23.18;100.00;99949.84;5078074;28;20015;-73
2021/06/19 09:02:26;;;;;;;;;;;;;;;23.14;100.00;99948.66;5073990;28;19916;-74
2021/06/19 09:05:06;;;;;;;;;;;;;;;23.21;100.00;99941.41;5084841;28;19916;-74
2021/06/19 09:07:40;;;;;;;;;;;;;;;23.31;100.00;99943.59;5067846;28;19924;-73
2021/06/19 09:10:32;;;;;;;;;;;;;;;23.40;100.00;99954.88;5090436;28;20014;-74
2021/06/19 09:13:05;;;;;;;;;;;;;;;23.29;100.00;99951.84;5090321;28;20260;-74
2021/06/19 09:15:33;;;;;;;;;;;;;;;23.34;100.00;99952.00;5095499;28;19935;-73
2021/06/19 09:18:00;;;;;;;;;;;;;;;23.41;100.00;99953.81;5076955;28;19970;-74
2021/06/19 09:20:36;;;;;;;;;;;;;;;23.33;100.00;99947.72;5076944;28;19918;-74
2021/06/19 09:23:08;;;;;;;;;;;;;;;23.37;100.00;99949.94;5077371;28;19916;-73
2021/06/19 09:25:33;;;;;;;;;;;;;;;23.39;100.00;99939.84;5075542;28;20003;-73
2021/06/19 09:27:59;;;;;;;;;;;;;;;23.57;100.00;99953.28;5075010;28;20035;-73
2021/06/19 09:30:25;;;;;;;;;;;;;;;23.65;100.00;99954.88;5093714;28;20434;-73
2021/06/19 09:32:55;;;;;;;;;;;;;;;23.52;100.00;99950.44;5076028;28;20390;-73
2021/06/19 09:35:25;;;;;;;;;;;;;;;23.62;100.00;99953.44;5076036;28;19922;-72
2021/06/19 09:37:58;;;;;;;;;;;;;;;23.77;100.00;99948.63;5076072;28;20360;-73
2021/06/19 09:40:33;;;;;;;;;;;;;;;23.84;100.00;99953.09;5076516;28;19958;-73
2021/06/19 09:43:10;;;;;;;;;;;;;;;23.95;100.00;99952.38;5104849;28;19966;-72
2021/06/19 09:45:37;;;;;;;;;;;;;;;24.00;100.00;99950.66;5115007;28;20260;-73
2021/06/19 09:48:02;;;;;;;;;;;;;;;24.17;100.00;99952.78;5115378;28;20002;-72
2021/06/19 09:50:28;;;;;;;;;;;;;;;24.24;100.00;99948.97;5114743;28;20390;-72
2021/06/19 09:52:53;;;;;;;;;;;;;;;24.40;100.00;99946.72;5115156;28;19919;-72
2021/06/19 09:55:19;;;;;;;;;;;;;;;24.55;100.00;99943.72;5114953;28;19918;-72
2021/06/19 09:57:48;;;;;;;;;;;;;;;24.52;100.00;99944.97;5114894;28;19954;-73
2021/06/19 10:00:15;;;;;;;;;;;;;;;24.34;100.00;99943.09;5114742;28;19919;-72
2021/06/19 10:02:42;;;;;;;;;;;;;;;24.45;100.00;99933.53;5115193;28;19912;-72
2021/06/19 10:05:07;;;;;;;;;;;;;;;24.40;100.00;99941.38;5096357;28;20374;-72
2021/06/19 10:07:33;;;;;;;;;;;;;;;24.20;100.00;99942.44;5114235;28;19911;-71
2021/06/19 10:09:59;;;;;;;;;;;;;;;24.13;100.00;99935.50;5112852;28;19918;-72
2021/06/19 10:12:26;;;;;;;;;;;;;;;24.35;100.00;99933.19;5112902;28;19911;-71
2021/06/19 10:15:10;;;;;;;;;;;;;;;24.59;100.00;99934.19;5113027;28;19912;-72
2021/06/19 10:17:38;;;;;;;;;;;;;;;24.94;100.00;99915.56;5112043;28;20450;-71
2021/06/19 10:20:04;;;;;;;;;;;;;;;24.94;100.00;99921.75;5112656;28;20010;-72
2021/06/19 10:22:30;;;;;;;;;;;;;;;25.07;100.00;99915.38;5112827;28;19970;-72
2021/06/19 10:25:07;;;;;;;;;;;;;;;25.46;100.00;99915.03;5114368;28;20406;-73
2021/06/19 10:27:34;;;;;;;;;;;;;;;25.67;100.00;99907.19;5114373;28;19923;-72
2021/06/19 10:30:01;;;;;;;;;;;;;;;25.88;100.00;99895.09;5114177;28;19916;-72
2021/06/19 10:32:45;;;;;;;;;;;;;;;26.01;100.00;99893.22;5095877;28;20337;-72
2021/06/19 10:35:12;;;;;;;;;;;;;;;26.14;100.00;99896.44;5114149;28;20010;-73
2021/06/19 10:37:38;;;;;;;;;;;;;;;26.29;100.00;99892.44;5113799;28;19911;-73
2021/06/19 10:40:19;;;;;;;;;;;;;;;26.36;100.00;99893.97;5113942;28;20014;-73
2021/06/19 10:42:44;;;;;;;;;;;;;;;26.51;100.00;99892.66;5113978;28;20401;-73
2021/06/19 10:45:16;;;;;;;;;;;;;;;26.45;100.00;99889.00;5113881;28;19955;-73
2021/06/19 10:48:01;;;;;;;;;;;;;;;26.51;100.00;99888.09;5113765;28;20275;-72
2021/06/19 10:50:26;;;;;;;;;;;;;;;26.81;100.00;99887.84;5113634;28;19919;-72
2021/06/19 10:53:24;;;;;;;;;;;;;;;26.80;100.00;99880.03;5113752;28;19916;-72
2021/06/19 10:55:52;;;;;;;;;;;;;;;26.42;100.00;99876.06;5057768;28;19919;-71
2021/06/19 10:58:23;;;;;;;;;;;;;;;26.06;100.00;99887.97;5113750;28;20395;-72
2021/06/19 11:00:50;;;;;;;;;;;;;;;25.72;100.00;99884.22;5114122;28;19919;-71
2021/06/19 11:03:16;;;;;;;;;;;;;;;26.07;100.00;99886.91;5114158;28;20007;-73
2021/06/19 11:05:42;;;;;;;;;;;;;;;26.41;100.00;99881.69;5113675;28;20374;-72
2021/06/19 11:08:08;;;;;;;;;;;;;;;26.67;100.00;99875.75;5113513;28;20014;-71
2021/06/19 11:10:43;;;;;;;;;;;;;;;26.84;100.00;99875.81;5113426;28;20014;-72
2021/06/19 11:13:26;;;;;;;;;;;;;;;27.30;100.00;99868.50;5113492;28;20015;-72
2021/06/19 11:15:52;;;;;;;;;;;;;;;27.25;100.00;99880.00;5113439;28;20185;-73
2021/06/19 11:18:37;;;;;;;;;;;;;;;26.69;100.00;99879.00;5113419;28;20296;-72
2021/06/19 11:21:09;;;;;;;;;;;;;;;26.32;100.00;99881.22;5113232;28;19922;-73
2021/06/19 11:23:53;;;;;;;;;;;;;;;26.02;100.00;99878.72;5113260;28;20014;-72
2021/06/19 11:26:37;;;;;;;;;;;;;;;25.69;100.00;99874.78;5113645;28;19961;-72
2021/06/19 11:29:21;;;;;;;;;;;;;;;25.75;100.00;99879.22;5112953;28;20018;-73
2021/06/19 11:31:48;;;;;;;;;;;;;;;25.63;100.00;99871.16;5113156;28;19912;-73
2021/06/19 11:34:33;;;;;;;;;;;;;;;25.64;100.00;99864.75;5112879;28;19919;-73
2021/06/19 11:36:59;;;;;;;;;;;;;;;25.39;100.00;99858.81;5113538;28;19916;-72
2021/06/19 11:39:31;;;;;;;;;;;;;;;25.85;100.00;99857.16;5113118;28;19920;-73
2021/06/19 11:41:57;;;;;;;;;;;;;;;26.00;100.00;99852.13;5113082;28;19915;-72
2021/06/19 11:44:24;;;;;;;;;;;;;;;26.12;100.00;99852.94;5113061;28;19922;-72
2021/06/19 11:46:50;;;;;;;;;;;;;;;26.41;100.00;99855.63;5113200;28;20278;-73
2021/06/19 11:49:17;;;;;;;;;;;;;;;26.48;100.00;99856.31;5112892;28;19912;-73
2021/06/19 11:51:46;;;;;;;;;;;;;;;26.61;100.00;99852.53;5113352;28;20298;-73
2021/06/19 11:54:14;;;;;;;;;;;;;;;26.74;100.00;99854.13;5113283;28;19942;-72
2021/06/19 11:56:40;;;;;;;;;;;;;;;26.81;100.00;99852.91;5112977;28;20370;-72
2021/06/19 11:59:06;;;;;;;;;;;;;;;26.74;100.00;99846.06;5113001;28;19968;-72
2021/06/19 12:01:38;;;;;;;;;;;;;;;26.84;100.00;99840.84;5113543;28;19916;-72
2021/06/19 12:04:05;;;;;;;;;;;;;;;26.94;100.00;99843.72;5113028;28;19912;-73
2021/06/19 12:06:37;;;;;;;;;;;;;;;27.10;100.00;99842.09;5113250;28;20002;-73
2021/06/19 12:09:04;;;;;;;;;;;;;;;26.84;100.00;99838.16;5113030;28;19950;-70
2021/06/19 12:11:31;;;;;;;;;;;;;;;26.58;100.00;99837.72;5112762;28;20014;-70
2021/06/19 12:13:56;;;;;;;;;;;;;;;26.44;100.00;99836.34;5113476;28;19912;-71
2021/06/19 12:16:32;;;;;;;;;;;;;;;26.70;100.00;99836.84;5113149;28;20413;-71
2021/06/19 12:19:00;;;;;;;;;;;;;;;26.93;100.00;99831.34;5112861;28;19912;-72
2021/06/19 12:21:36;;;;;;;;;;;;;;;26.81;100.00;99820.66;5112811;28;19911;-69
2021/06/19 12:24:02;;;;;;;;;;;;;;;26.64;100.00;99816.31;5112758;28;20361;-71
2021/06/19 12:26:28;;;;;;;;;;;;;;;26.58;100.00;99818.91;5113164;28;19918;-72
2021/06/19 12:28:54;;;;;;;;;;;;;;;26.69;100.00;99816.38;5112938;28;20387;-70
2021/06/19 12:31:23;;;;;;;;;;;;;;;26.69;100.00;99813.69;5112850;28;20398;-72
2021/06/19 12:33:59;;;;;;;;;;;;;;;26.82;100.00;99813.38;5112939;28;20014;-72